sensor_id;sensor_type;location;lat;lon;timestamp;P1;durP1;ratioP1;P2;durP2;ratioP2
6928;SDS011;3504;52.616;13.238;2022-08-11T00:04:23;3.10;;;2.60;;
6928;SDS011;3504;52.616;13.238;2022-08-11T00:09:30;5.68;;;2.45;;
6928;SDS011;3504;52.616;13.238;2022-08-11T00:14:36;3.88;;;2.20;;
6928;SDS011;3504;52.616;13.238;2022-08-11T00:19:45;3.28;;;2.83;;
6928;SDS011;3504;52.616;13.238;2022-08-11T00:24:48;3.00;;;2.63;;
6928;SDS011;3504;52.616;13.238;2022-08-11T00:29:53;2.60;;;2.40;;
6928;SDS011;3504;52.616;13.238;2022-08-11T00:34:55;3.80;;;2.40;;
6928;SDS011;3504;52.616;13.238;2022-08-11T00:39:58;3.40;;;2.33;;
6928;SDS011;3504;52.616;13.238;2022-08-11T00:50:12;4.60;;;3.00;;
6928;SDS011;3504;52.616;13.238;2022-08-11T01:01:27;4.40;;;2.95;;
6928;SDS011;3504;52.616;13.238;2022-08-11T01:12:55;2.97;;;2.60;;
6928;SDS011;3504;52.616;13.238;2022-08-11T01:58:35;3.03;;;2.80;;
6928;SDS011;3504;52.616;13.238;2022-08-11T02:15:41;4.23;;;3.10;;
6928;SDS011;3504;52.616;13.238;2022-08-11T02:21:02;4.27;;;3.10;;
6928;SDS011;3504;52.616;13.238;2022-08-11T02:26:47;5.63;;;3.33;;
6928;SDS011;3504;52.616;13.238;2022-08-11T02:37:56;3.20;;;2.90;;
6928;SDS011;3504;52.616;13.238;2022-08-11T02:43:22;3.53;;;3.23;;
6928;SDS011;3504;52.616;13.238;2022-08-11T02:48:59;3.33;;;2.90;;
6928;SDS011;3504;52.616;13.238;2022-08-11T03:00:12;3.40;;;3.10;;
6928;SDS011;3504;52.616;13.238;2022-08-11T03:05:33;4.60;;;3.17;;
6928;SDS011;3504;52.616;13.238;2022-08-11T03:16:59;4.07;;;3.40;;
6928;SDS011;3504;52.616;13.238;2022-08-11T03:22:51;4.33;;;3.30;;
6928;SDS011;3504;52.616;13.238;2022-08-11T03:28:33;4.67;;;3.57;;
6928;SDS011;3504;52.616;13.238;2022-08-11T03:33:43;3.47;;;3.13;;
6928;SDS011;3504;52.616;13.238;2022-08-11T04:02:03;6.17;;;3.00;;
6928;SDS011;3504;52.616;13.238;2022-08-11T04:07:52;3.67;;;3.10;;
6928;SDS011;3504;52.616;13.238;2022-08-11T04:13:26;5.67;;;3.10;;
6928;SDS011;3504;52.616;13.238;2022-08-11T04:30:34;5.63;;;3.53;;
6928;SDS011;3504;52.616;13.238;2022-08-11T04:36:34;7.13;;;4.17;;
6928;SDS011;3504;52.616;13.238;2022-08-11T04:48:25;4.47;;;3.60;;
6928;SDS011;3504;52.616;13.238;2022-08-11T04:54:25;5.50;;;3.67;;
6928;SDS011;3504;52.616;13.238;2022-08-11T05:00:16;4.40;;;3.50;;
6928;SDS011;3504;52.616;13.238;2022-08-11T05:16:45;7.60;;;3.90;;
6928;SDS011;3504;52.616;13.238;2022-08-11T05:22:11;8.50;;;4.17;;
6928;SDS011;3504;52.616;13.238;2022-08-11T05:27:37;7.13;;;3.87;;
6928;SDS011;3504;52.616;13.238;2022-08-11T05:33:29;6.17;;;4.50;;
6928;SDS011;3504;52.616;13.238;2022-08-11T05:39:04;7.60;;;3.90;;
6928;SDS011;3504;52.616;13.238;2022-08-11T05:44:33;5.53;;;4.37;;
6928;SDS011;3504;52.616;13.238;2022-08-11T05:49:57;6.07;;;4.37;;
6928;SDS011;3504;52.616;13.238;2022-08-11T05:55:16;7.53;;;4.33;;
6928;SDS011;3504;52.616;13.238;2022-08-11T06:00:43;9.20;;;4.30;;
6928;SDS011;3504;52.616;13.238;2022-08-11T06:05:45;9.38;;;4.53;;
6928;SDS011;3504;52.616;13.238;2022-08-11T06:10:47;9.90;;;4.78;;
6928;SDS011;3504;52.616;13.238;2022-08-11T06:15:48;9.65;;;4.82;;
6928;SDS011;3504;52.616;13.238;2022-08-11T06:20:53;9.00;;;4.25;;
6928;SDS011;3504;52.616;13.238;2022-08-11T06:25:55;6.65;;;5.03;;
6928;SDS011;3504;52.616;13.238;2022-08-11T06:30:59;8.25;;;4.97;;
6928;SDS011;3504;52.616;13.238;2022-08-11T06:36:14;8.68;;;5.22;;
6928;SDS011;3504;52.616;13.238;2022-08-11T06:41:47;9.32;;;5.05;;
6928;SDS011;3504;52.616;13.238;2022-08-11T06:47:06;8.65;;;4.60;;
6928;SDS011;3504;52.616;13.238;2022-08-11T06:52:11;8.00;;;5.30;;
6928;SDS011;3504;52.616;13.238;2022-08-11T06:57:14;8.90;;;5.22;;
6928;SDS011;3504;52.616;13.238;2022-08-11T07:02:42;8.63;;;5.13;;
6928;SDS011;3504;52.616;13.238;2022-08-11T07:08:06;9.27;;;5.28;;
6928;SDS011;3504;52.616;13.238;2022-08-11T07:13:55;8.73;;;5.53;;
6928;SDS011;3504;52.616;13.238;2022-08-11T07:19:20;6.53;;;5.85;;
6928;SDS011;3504;52.616;13.238;2022-08-11T07:30:31;11.60;;;5.20;;
6928;SDS011;3504;52.616;13.238;2022-08-11T07:35:43;13.27;;;5.88;;
6928;SDS011;3504;52.616;13.238;2022-08-11T07:40:48;9.30;;;5.25;;
6928;SDS011;3504;52.616;13.238;2022-08-11T07:45:51;10.60;;;4.90;;
6928;SDS011;3504;52.616;13.238;2022-08-11T07:51:10;8.43;;;4.95;;
6928;SDS011;3504;52.616;13.238;2022-08-11T07:56:33;8.15;;;5.15;;
6928;SDS011;3504;52.616;13.238;2022-08-11T08:01:35;9.25;;;4.55;;
6928;SDS011;3504;52.616;13.238;2022-08-11T08:06:56;7.35;;;4.82;;
6928;SDS011;3504;52.616;13.238;2022-08-11T08:12:16;8.93;;;4.95;;
6928;SDS011;3504;52.616;13.238;2022-08-11T08:17:40;9.48;;;4.70;;
6928;SDS011;3504;52.616;13.238;2022-08-11T08:22:50;9.45;;;4.50;;
6928;SDS011;3504;52.616;13.238;2022-08-11T08:27:56;9.15;;;4.78;;
6928;SDS011;3504;52.616;13.238;2022-08-11T08:32:58;5.68;;;4.25;;
6928;SDS011;3504;52.616;13.238;2022-08-11T08:38:02;9.73;;;4.57;;
6928;SDS011;3504;52.616;13.238;2022-08-11T08:43:04;6.85;;;4.10;;
6928;SDS011;3504;52.616;13.238;2022-08-11T08:48:14;5.93;;;3.97;;
6928;SDS011;3504;52.616;13.238;2022-08-11T08:53:19;5.93;;;4.03;;
6928;SDS011;3504;52.616;13.238;2022-08-11T08:58:29;7.00;;;4.30;;
6928;SDS011;3504;52.616;13.238;2022-08-11T09:03:35;5.47;;;3.65;;
6928;SDS011;3504;52.616;13.238;2022-08-11T09:08:38;6.63;;;4.32;;
6928;SDS011;3504;52.616;13.238;2022-08-11T09:13:39;4.30;;;3.90;;
6928;SDS011;3504;52.616;13.238;2022-08-11T09:18:43;8.25;;;3.65;;
6928;SDS011;3504;52.616;13.238;2022-08-11T09:23:44;6.93;;;3.65;;
6928;SDS011;3504;52.616;13.238;2022-08-11T09:29:12;6.82;;;3.95;;
6928;SDS011;3504;52.616;13.238;2022-08-11T09:34:13;6.82;;;3.53;;
6928;SDS011;3504;52.616;13.238;2022-08-11T09:39:14;7.40;;;3.78;;
6928;SDS011;3504;52.616;13.238;2022-08-11T09:44:34;5.93;;;3.67;;
6928;SDS011;3504;52.616;13.238;2022-08-11T09:49:48;7.05;;;3.55;;
6928;SDS011;3504;52.616;13.238;2022-08-11T09:54:54;5.22;;;3.80;;
6928;SDS011;3504;52.616;13.238;2022-08-11T09:59:54;4.57;;;3.13;;
6928;SDS011;3504;52.616;13.238;2022-08-11T10:04:56;5.88;;;3.30;;
6928;SDS011;3504;52.616;13.238;2022-08-11T10:10:18;4.15;;;3.22;;
6928;SDS011;3504;52.616;13.238;2022-08-11T10:15:22;5.03;;;2.97;;
6928;SDS011;3504;52.616;13.238;2022-08-11T10:20:34;3.85;;;2.97;;
6928;SDS011;3504;52.616;13.238;2022-08-11T10:25:38;5.07;;;3.30;;
6928;SDS011;3504;52.616;13.238;2022-08-11T10:30:57;3.30;;;2.75;;
6928;SDS011;3504;52.616;13.238;2022-08-11T10:36:18;5.60;;;3.40;;
6928;SDS011;3504;52.616;13.238;2022-08-11T10:41:19;4.90;;;3.47;;
6928;SDS011;3504;52.616;13.238;2022-08-11T10:46:40;3.42;;;3.00;;
6928;SDS011;3504;52.616;13.238;2022-08-11T10:51:59;4.95;;;3.10;;
6928;SDS011;3504;52.616;13.238;2022-08-11T10:57:21;5.22;;;3.38;;
6928;SDS011;3504;52.616;13.238;2022-08-11T11:02:41;5.20;;;3.50;;
6928;SDS011;3504;52.616;13.238;2022-08-11T11:07:53;4.30;;;3.55;;
6928;SDS011;3504;52.616;13.238;2022-08-11T11:13:02;3.65;;;3.20;;
6928;SDS011;3504;52.616;13.238;2022-08-11T11:18:26;6.18;;;3.30;;
6928;SDS011;3504;52.616;13.238;2022-08-11T11:41:27;5.28;;;3.40;;
6928;SDS011;3504;52.616;13.238;2022-08-11T11:46:29;4.90;;;3.10;;
6928;SDS011;3504;52.616;13.238;2022-08-11T11:51:31;4.03;;;3.42;;
6928;SDS011;3504;52.616;13.238;2022-08-11T11:56:33;4.75;;;3.05;;
6928;SDS011;3504;52.616;13.238;2022-08-11T12:01:35;6.70;;;3.22;;
6928;SDS011;3504;52.616;13.238;2022-08-11T12:06:37;4.82;;;3.42;;
6928;SDS011;3504;52.616;13.238;2022-08-11T12:11:38;5.93;;;3.17;;
6928;SDS011;3504;52.616;13.238;2022-08-11T12:16:57;4.00;;;3.40;;
6928;SDS011;3504;52.616;13.238;2022-08-11T12:21:58;4.78;;;2.90;;
6928;SDS011;3504;52.616;13.238;2022-08-11T12:27:19;4.25;;;3.10;;
6928;SDS011;3504;52.616;13.238;2022-08-11T12:32:22;6.05;;;3.70;;
6928;SDS011;3504;52.616;13.238;2022-08-11T12:37:48;3.53;;;3.15;;
6928;SDS011;3504;52.616;13.238;2022-08-11T12:42:50;4.47;;;3.25;;
6928;SDS011;3504;52.616;13.238;2022-08-11T12:48:17;8.52;;;3.25;;
6928;SDS011;3504;52.616;13.238;2022-08-11T12:53:41;7.50;;;3.15;;
6928;SDS011;3504;52.616;13.238;2022-08-11T12:58:46;5.57;;;3.30;;
6928;SDS011;3504;52.616;13.238;2022-08-11T13:03:49;3.65;;;3.05;;
6928;SDS011;3504;52.616;13.238;2022-08-11T13:09:09;4.72;;;3.08;;
6928;SDS011;3504;52.616;13.238;2022-08-11T13:14:11;6.78;;;3.22;;
6928;SDS011;3504;52.616;13.238;2022-08-11T13:19:13;4.07;;;3.10;;
6928;SDS011;3504;52.616;13.238;2022-08-11T13:24:13;3.38;;;3.08;;
6928;SDS011;3504;52.616;13.238;2022-08-11T13:29:22;4.72;;;3.42;;
6928;SDS011;3504;52.616;13.238;2022-08-11T13:34:25;8.57;;;3.30;;
6928;SDS011;3504;52.616;13.238;2022-08-11T13:39:31;4.30;;;3.03;;
6928;SDS011;3504;52.616;13.238;2022-08-11T13:44:34;4.10;;;3.00;;
6928;SDS011;3504;52.616;13.238;2022-08-11T13:49:39;4.70;;;3.17;;
6928;SDS011;3504;52.616;13.238;2022-08-11T13:54:41;4.97;;;3.08;;
6928;SDS011;3504;52.616;13.238;2022-08-11T13:59:45;9.07;;;3.08;;
6928;SDS011;3504;52.616;13.238;2022-08-11T14:04:54;7.53;;;3.33;;
6928;SDS011;3504;52.616;13.238;2022-08-11T14:10:06;6.43;;;3.03;;
6928;SDS011;3504;52.616;13.238;2022-08-11T14:20:25;6.22;;;2.95;;
6928;SDS011;3504;52.616;13.238;2022-08-11T14:25:47;7.78;;;2.78;;
6928;SDS011;3504;52.616;13.238;2022-08-11T14:31:07;7.82;;;2.65;;
6928;SDS011;3504;52.616;13.238;2022-08-11T14:36:09;4.93;;;2.80;;
6928;SDS011;3504;52.616;13.238;2022-08-11T14:41:12;3.42;;;2.97;;
6928;SDS011;3504;52.616;13.238;2022-08-11T14:46:31;5.30;;;2.50;;
6928;SDS011;3504;52.616;13.238;2022-08-11T14:51:53;5.15;;;2.17;;
6928;SDS011;3504;52.616;13.238;2022-08-11T14:56:56;3.72;;;2.35;;
6928;SDS011;3504;52.616;13.238;2022-08-11T15:01:59;5.43;;;2.22;;
6928;SDS011;3504;52.616;13.238;2022-08-11T15:07:20;4.40;;;2.30;;
6928;SDS011;3504;52.616;13.238;2022-08-11T15:12:30;5.20;;;2.60;;
6928;SDS011;3504;52.616;13.238;2022-08-11T15:17:33;4.13;;;2.28;;
6928;SDS011;3504;52.616;13.238;2022-08-11T15:22:36;3.53;;;2.40;;
6928;SDS011;3504;52.616;13.238;2022-08-11T15:27:56;6.28;;;2.08;;
6928;SDS011;3504;52.616;13.238;2022-08-11T15:33:17;5.22;;;2.40;;
6928;SDS011;3504;52.616;13.238;2022-08-11T15:38:50;2.83;;;2.10;;
6928;SDS011;3504;52.616;13.238;2022-08-11T15:43:58;3.20;;;1.90;;
6928;SDS011;3504;52.616;13.238;2022-08-11T15:49:33;4.57;;;2.10;;
6928;SDS011;3504;52.616;13.238;2022-08-11T15:54:40;3.45;;;2.08;;
6928;SDS011;3504;52.616;13.238;2022-08-11T15:59:42;4.35;;;2.13;;
6928;SDS011;3504;52.616;13.238;2022-08-11T16:05:05;2.50;;;2.30;;
6928;SDS011;3504;52.616;13.238;2022-08-11T16:10:09;4.07;;;1.65;;
6928;SDS011;3504;52.616;13.238;2022-08-11T16:15:15;4.60;;;1.70;;
6928;SDS011;3504;52.616;13.238;2022-08-11T16:20:34;5.53;;;2.10;;
6928;SDS011;3504;52.616;13.238;2022-08-11T16:25:36;3.67;;;2.05;;
6928;SDS011;3504;52.616;13.238;2022-08-11T16:30:38;2.25;;;1.90;;
6928;SDS011;3504;52.616;13.238;2022-08-11T16:35:43;4.95;;;1.75;;
6928;SDS011;3504;52.616;13.238;2022-08-11T16:41:07;2.35;;;1.80;;
6928;SDS011;3504;52.616;13.238;2022-08-11T16:46:13;2.42;;;1.90;;
6928;SDS011;3504;52.616;13.238;2022-08-11T16:51:35;2.28;;;1.83;;
6928;SDS011;3504;52.616;13.238;2022-08-11T16:56:42;3.80;;;2.05;;
6928;SDS011;3504;52.616;13.238;2022-08-11T17:01:50;4.03;;;1.85;;
6928;SDS011;3504;52.616;13.238;2022-08-11T17:06:55;3.70;;;2.10;;
6928;SDS011;3504;52.616;13.238;2022-08-11T17:12:15;4.28;;;1.83;;
6928;SDS011;3504;52.616;13.238;2022-08-11T17:17:41;5.93;;;1.65;;
6928;SDS011;3504;52.616;13.238;2022-08-11T17:22:42;1.70;;;1.60;;
6928;SDS011;3504;52.616;13.238;2022-08-11T17:28:03;2.90;;;1.70;;
6928;SDS011;3504;52.616;13.238;2022-08-11T17:33:05;4.35;;;1.80;;
6928;SDS011;3504;52.616;13.238;2022-08-11T17:38:25;2.95;;;1.60;;
6928;SDS011;3504;52.616;13.238;2022-08-11T17:43:27;4.93;;;1.80;;
6928;SDS011;3504;52.616;13.238;2022-08-11T17:48:53;4.70;;;2.28;;
6928;SDS011;3504;52.616;13.238;2022-08-11T17:53:55;4.20;;;1.67;;
6928;SDS011;3504;52.616;13.238;2022-08-11T17:59:15;5.18;;;2.35;;
6928;SDS011;3504;52.616;13.238;2022-08-11T18:04:35;4.35;;;1.92;;
6928;SDS011;3504;52.616;13.238;2022-08-11T18:09:37;4.80;;;2.03;;
6928;SDS011;3504;52.616;13.238;2022-08-11T18:14:56;2.97;;;1.75;;
6928;SDS011;3504;52.616;13.238;2022-08-11T18:20:17;3.72;;;1.88;;
6928;SDS011;3504;52.616;13.238;2022-08-11T18:25:38;5.70;;;1.90;;
6928;SDS011;3504;52.616;13.238;2022-08-11T18:31:02;4.80;;;1.73;;
6928;SDS011;3504;52.616;13.238;2022-08-11T18:36:25;6.53;;;2.50;;
6928;SDS011;3504;52.616;13.238;2022-08-11T18:41:49;4.07;;;1.88;;
6928;SDS011;3504;52.616;13.238;2022-08-11T18:47:10;3.42;;;2.05;;
6928;SDS011;3504;52.616;13.238;2022-08-11T18:52:33;3.10;;;1.98;;
6928;SDS011;3504;52.616;13.238;2022-08-11T18:57:53;2.75;;;1.90;;
6928;SDS011;3504;52.616;13.238;2022-08-11T19:03:15;4.35;;;2.10;;
6928;SDS011;3504;52.616;13.238;2022-08-11T19:08:37;4.55;;;2.10;;
6928;SDS011;3504;52.616;13.238;2022-08-11T19:14:01;4.63;;;1.88;;
6928;SDS011;3504;52.616;13.238;2022-08-11T19:19:20;4.47;;;3.00;;
6928;SDS011;3504;52.616;13.238;2022-08-11T19:24:43;5.30;;;3.22;;
6928;SDS011;3504;52.616;13.238;2022-08-11T19:30:05;3.70;;;2.55;;
6928;SDS011;3504;52.616;13.238;2022-08-11T19:35:26;4.97;;;2.22;;
6928;SDS011;3504;52.616;13.238;2022-08-11T19:40:46;4.72;;;2.30;;
6928;SDS011;3504;52.616;13.238;2022-08-11T19:46:07;3.08;;;2.55;;
6928;SDS011;3504;52.616;13.238;2022-08-11T19:51:27;4.97;;;2.33;;
6928;SDS011;3504;52.616;13.238;2022-08-11T19:56:48;4.05;;;2.15;;
6928;SDS011;3504;52.616;13.238;2022-08-11T20:02:08;4.00;;;2.40;;
6928;SDS011;3504;52.616;13.238;2022-08-11T20:07:29;3.55;;;2.33;;
6928;SDS011;3504;52.616;13.238;2022-08-11T20:12:49;5.18;;;2.85;;
6928;SDS011;3504;52.616;13.238;2022-08-11T20:18:10;5.70;;;3.30;;
6928;SDS011;3504;52.616;13.238;2022-08-11T20:23:31;5.35;;;3.38;;
6928;SDS011;3504;52.616;13.238;2022-08-11T20:28:52;4.07;;;3.00;;
6928;SDS011;3504;52.616;13.238;2022-08-11T20:34:14;5.60;;;2.85;;
6928;SDS011;3504;52.616;13.238;2022-08-11T20:39:36;2.95;;;2.65;;
6928;SDS011;3504;52.616;13.238;2022-08-11T20:44:59;4.30;;;2.63;;
6928;SDS011;3504;52.616;13.238;2022-08-11T20:50:22;7.25;;;2.90;;
6928;SDS011;3504;52.616;13.238;2022-08-11T20:55:43;3.63;;;2.92;;
6928;SDS011;3504;52.616;13.238;2022-08-11T21:01:04;5.13;;;3.40;;
6928;SDS011;3504;52.616;13.238;2022-08-11T21:06:24;3.25;;;2.88;;
6928;SDS011;3504;52.616;13.238;2022-08-11T21:11:47;3.80;;;2.72;;
6928;SDS011;3504;52.616;13.238;2022-08-11T21:17:10;4.65;;;2.80;;
6928;SDS011;3504;52.616;13.238;2022-08-11T21:22:54;3.95;;;2.65;;
6928;SDS011;3504;52.616;13.238;2022-08-11T21:28:17;4.55;;;2.42;;
6928;SDS011;3504;52.616;13.238;2022-08-11T21:33:40;5.15;;;2.58;;
6928;SDS011;3504;52.616;13.238;2022-08-11T21:39:00;5.20;;;2.83;;
6928;SDS011;3504;52.616;13.238;2022-08-11T21:44:24;4.80;;;3.00;;
6928;SDS011;3504;52.616;13.238;2022-08-11T21:49:44;4.60;;;2.47;;
6928;SDS011;3504;52.616;13.238;2022-08-11T21:55:07;4.75;;;2.80;;
6928;SDS011;3504;52.616;13.238;2022-08-11T22:00:27;4.07;;;2.50;;
6928;SDS011;3504;52.616;13.238;2022-08-11T22:05:48;3.72;;;2.60;;
6928;SDS011;3504;52.616;13.238;2022-08-11T22:11:08;6.38;;;2.60;;
6928;SDS011;3504;52.616;13.238;2022-08-11T22:16:28;4.78;;;2.47;;
6928;SDS011;3504;52.616;13.238;2022-08-11T22:21:47;5.63;;;2.80;;
6928;SDS011;3504;52.616;13.238;2022-08-11T22:27:09;5.03;;;3.20;;
6928;SDS011;3504;52.616;13.238;2022-08-11T22:32:28;6.32;;;2.95;;
6928;SDS011;3504;52.616;13.238;2022-08-11T22:37:49;3.42;;;3.00;;
6928;SDS011;3504;52.616;13.238;2022-08-11T22:43:08;3.75;;;2.70;;
6928;SDS011;3504;52.616;13.238;2022-08-11T22:48:29;4.60;;;3.08;;
6928;SDS011;3504;52.616;13.238;2022-08-11T22:53:49;4.90;;;3.08;;
6928;SDS011;3504;52.616;13.238;2022-08-11T22:59:13;5.70;;;3.00;;
6928;SDS011;3504;52.616;13.238;2022-08-11T23:04:35;4.38;;;2.83;;
6928;SDS011;3504;52.616;13.238;2022-08-11T23:09:56;4.75;;;2.90;;
6928;SDS011;3504;52.616;13.238;2022-08-11T23:15:17;3.30;;;2.55;;
6928;SDS011;3504;52.616;13.238;2022-08-11T23:20:38;3.33;;;2.80;;
6928;SDS011;3504;52.616;13.238;2022-08-11T23:25:58;4.43;;;3.00;;
6928;SDS011;3504;52.616;13.238;2022-08-11T23:31:21;4.63;;;2.85;;
6928;SDS011;3504;52.616;13.238;2022-08-11T23:36:42;3.67;;;3.10;;
6928;SDS011;3504;52.616;13.238;2022-08-11T23:42:02;3.75;;;2.67;;
6928;SDS011;3504;52.616;13.238;2022-08-11T23:47:22;3.42;;;2.88;;
6928;SDS011;3504;52.616;13.238;2022-08-11T23:52:43;5.70;;;3.60;;
6928;SDS011;3504;52.616;13.238;2022-08-11T23:58:03;3.42;;;3.03;;
